sensor_id;sensor_type;location;lat;lon;timestamp;pressure;altitude;pressure_sealevel;temperature;humidity
71996;BME280;59862;47.732;7.346;2023-02-18T00:01:30;99335.08;;;9.63;89.45
71996;BME280;59862;47.732;7.346;2023-02-18T00:03:59;99327.95;;;9.58;89.58
71996;BME280;59862;47.732;7.346;2023-02-18T00:06:29;99331.70;;;9.61;89.60
71996;BME280;59862;47.732;7.346;2023-02-18T00:08:58;99327.31;;;9.60;89.56
71996;BME280;59862;47.732;7.346;2023-02-18T00:11:30;99324.30;;;9.59;89.56
71996;BME280;59862;47.732;7.346;2023-02-18T00:14:00;99325.64;;;9.59;89.54
71996;BME280;59862;47.732;7.346;2023-02-18T00:16:29;99327.53;;;9.62;89.48
71996;BME280;59862;47.732;7.346;2023-02-18T00:19:00;99323.88;;;9.63;89.37
71996;BME280;59862;47.732;7.346;2023-02-18T00:21:27;99322.17;;;9.62;89.40
71996;BME280;59862;47.732;7.346;2023-02-18T00:23:55;99317.30;;;9.62;89.47
71996;BME280;59862;47.732;7.346;2023-02-18T00:26:23;99320.19;;;9.64;89.40
71996;BME280;59862;47.732;7.346;2023-02-18T00:28:50;99319.98;;;9.62;89.37
71996;BME280;59862;47.732;7.346;2023-02-18T00:31:21;99319.98;;;9.62;89.40
71996;BME280;59862;47.732;7.346;2023-02-18T00:33:49;99322.02;;;9.64;89.31
71996;BME280;59862;47.732;7.346;2023-02-18T00:36:18;99317.99;;;9.64;89.31
71996;BME280;59862;47.732;7.346;2023-02-18T00:38:48;99321.89;;;9.65;89.29
71996;BME280;59862;47.732;7.346;2023-02-18T00:41:16;99316.38;;;9.67;89.17
71996;BME280;59862;47.732;7.346;2023-02-18T00:43:44;99311.50;;;9.66;89.13
71996;BME280;59862;47.732;7.346;2023-02-18T00:46:11;99310.73;;;9.70;89.08
71996;BME280;59862;47.732;7.346;2023-02-18T00:48:40;99310.05;;;9.68;89.12
71996;BME280;59862;47.732;7.346;2023-02-18T00:51:08;99310.05;;;9.68;89.11
71996;BME280;59862;47.732;7.346;2023-02-18T00:53:36;99306.77;;;9.74;89.01
71996;BME280;59862;47.732;7.346;2023-02-18T00:56:05;99307.74;;;9.73;88.88
71996;BME280;59862;47.732;7.346;2023-02-18T00:58:33;99307.20;;;9.69;89.02
71996;BME280;59862;47.732;7.346;2023-02-18T01:01:02;99300.84;;;9.70;89.01
71996;BME280;59862;47.732;7.346;2023-02-18T01:03:30;99306.77;;;9.74;88.97
71996;BME280;59862;47.732;7.346;2023-02-18T01:05:58;99304.94;;;9.74;88.81
71996;BME280;59862;47.732;7.346;2023-02-18T01:08:25;99292.80;;;9.70;88.87
71996;BME280;59862;47.732;7.346;2023-02-18T01:10:55;99306.28;;;9.74;88.79
71996;BME280;59862;47.732;7.346;2023-02-18T01:13:24;99293.37;;;9.74;88.73
71996;BME280;59862;47.732;7.346;2023-02-18T01:15:52;99295.73;;;9.77;88.60
71996;BME280;59862;47.732;7.346;2023-02-18T01:18:20;99294.71;;;9.74;88.56
71996;BME280;59862;47.732;7.346;2023-02-18T01:20:48;99297.92;;;9.77;88.51
71996;BME280;59862;47.732;7.346;2023-02-18T01:23:16;99289.24;;;9.79;88.34
71996;BME280;59862;47.732;7.346;2023-02-18T01:25:44;99285.71;;;9.79;88.25
71996;BME280;59862;47.732;7.346;2023-02-18T01:28:13;99288.75;;;9.80;88.28
71996;BME280;59862;47.732;7.346;2023-02-18T01:30:41;99279.42;;;9.84;88.15
71996;BME280;59862;47.732;7.346;2023-02-18T01:33:09;99283.75;;;9.81;88.21
71996;BME280;59862;47.732;7.346;2023-02-18T01:35:39;99280.55;;;9.81;88.15
71996;BME280;59862;47.732;7.346;2023-02-18T01:38:07;99281.77;;;9.83;88.12
71996;BME280;59862;47.732;7.346;2023-02-18T01:40:42;99276.41;;;9.83;88.02
71996;BME280;59862;47.732;7.346;2023-02-18T01:43:05;99268.54;;;9.85;88.05
71996;BME280;59862;47.732;7.346;2023-02-18T01:45:42;99275.77;;;9.85;87.92
71996;BME280;59862;47.732;7.346;2023-02-18T01:51:06;99261.30;;;9.82;87.92
71996;BME280;59862;47.732;7.346;2023-02-18T01:53:30;99261.30;;;9.82;87.92
71996;BME280;59862;47.732;7.346;2023-02-18T01:55:59;99264.23;;;9.88;87.75
71996;BME280;59862;47.732;7.346;2023-02-18T01:58:27;99271.48;;;9.92;87.56
71996;BME280;59862;47.732;7.346;2023-02-18T02:00:54;99260.63;;;9.93;87.45
71996;BME280;59862;47.732;7.346;2023-02-18T02:03:22;99256.45;;;9.95;87.33
71996;BME280;59862;47.732;7.346;2023-02-18T02:05:49;99261.60;;;9.92;87.34
71996;BME280;59862;47.732;7.346;2023-02-18T02:08:17;99261.11;;;9.93;87.32
71996;BME280;59862;47.732;7.346;2023-02-18T02:16:44;99261.41;;;10.04;87.04
71996;BME280;59862;47.732;7.346;2023-02-18T02:27:20;99243.48;;;10.04;86.85
71996;BME280;59862;47.732;7.346;2023-02-18T02:32:58;99242.44;;;10.01;86.87
71996;BME280;59862;47.732;7.346;2023-02-18T02:38:13;99236.78;;;10.04;86.84
71996;BME280;59862;47.732;7.346;2023-02-18T02:40:51;99243.82;;;10.05;86.83
71996;BME280;59862;47.732;7.346;2023-02-18T02:46:22;99249.59;;;10.10;86.69
71996;BME280;59862;47.732;7.346;2023-02-18T02:49:17;99247.79;;;10.11;86.53
71996;BME280;59862;47.732;7.346;2023-02-18T02:51:58;99252.02;;;10.13;86.45
71996;BME280;59862;47.732;7.346;2023-02-18T02:54:23;99251.58;;;10.08;86.48
71996;BME280;59862;47.732;7.346;2023-02-18T02:57:06;99244.34;;;10.05;86.64
71996;BME280;59862;47.732;7.346;2023-02-18T02:59:30;99237.92;;;10.02;86.83
71996;BME280;59862;47.732;7.346;2023-02-18T03:04:58;99230.73;;;10.02;86.88
71996;BME280;59862;47.732;7.346;2023-02-18T03:15:54;99224.67;;;10.00;86.83
71996;BME280;59862;47.732;7.346;2023-02-18T03:18:33;99218.30;;;10.01;86.84
71996;BME280;59862;47.732;7.346;2023-02-18T03:21:05;99217.33;;;10.02;86.78
71996;BME280;59862;47.732;7.346;2023-02-18T03:23:35;99211.80;;;10.04;86.75
71996;BME280;59862;47.732;7.346;2023-02-18T03:26:03;99214.97;;;10.03;86.79
71996;BME280;59862;47.732;7.346;2023-02-18T03:28:33;99212.98;;;10.05;86.73
71996;BME280;59862;47.732;7.346;2023-02-18T03:31:09;99214.03;;;10.08;86.71
71996;BME280;59862;47.732;7.346;2023-02-18T03:33:54;99205.50;;;10.09;86.59
71996;BME280;59862;47.732;7.346;2023-02-18T03:36:18;99199.52;;;10.11;86.55
71996;BME280;59862;47.732;7.346;2023-02-18T03:39:09;99200.70;;;10.12;86.50
71996;BME280;59862;47.732;7.346;2023-02-18T03:41:33;99203.74;;;10.13;86.50
71996;BME280;59862;47.732;7.346;2023-02-18T03:44:06;99199.06;;;10.15;86.33
71996;BME280;59862;47.732;7.346;2023-02-18T03:46:35;99204.02;;;10.24;86.13
71996;BME280;59862;47.732;7.346;2023-02-18T03:49:04;99199.80;;;10.21;85.89
71996;BME280;59862;47.732;7.346;2023-02-18T03:51:32;99195.48;;;10.24;85.78
71996;BME280;59862;47.732;7.346;2023-02-18T03:53:59;99200.48;;;10.23;85.72
71996;BME280;59862;47.732;7.346;2023-02-18T03:56:27;99194.76;;;10.22;85.80
71996;BME280;59862;47.732;7.346;2023-02-18T03:58:54;99180.63;;;10.16;85.81
71996;BME280;59862;47.732;7.346;2023-02-18T04:01:22;99180.63;;;10.16;85.81
71996;BME280;59862;47.732;7.346;2023-02-18T04:03:49;99178.14;;;10.19;85.73
71996;BME280;59862;47.732;7.346;2023-02-18T04:06:17;99181.22;;;10.24;85.52
71996;BME280;59862;47.732;7.346;2023-02-18T04:08:44;99188.05;;;10.22;85.49
71996;BME280;59862;47.732;7.346;2023-02-18T04:11:12;99182.36;;;10.21;85.60
71996;BME280;59862;47.732;7.346;2023-02-18T04:13:40;99175.62;;;10.17;85.93
71996;BME280;59862;47.732;7.346;2023-02-18T04:16:07;99176.95;;;10.17;86.00
71996;BME280;59862;47.732;7.346;2023-02-18T04:18:35;99183.17;;;10.18;86.08
71996;BME280;59862;47.732;7.346;2023-02-18T04:21:02;99183.76;;;10.12;86.32
71996;BME280;59862;47.732;7.346;2023-02-18T04:23:30;99173.64;;;10.10;86.72
71996;BME280;59862;47.732;7.346;2023-02-18T04:25:57;99181.81;;;10.04;87.00
71996;BME280;59862;47.732;7.346;2023-02-18T04:28:24;99174.71;;;9.99;87.53
71996;BME280;59862;47.732;7.346;2023-02-18T04:30:52;99179.88;;;9.97;87.84
71996;BME280;59862;47.732;7.346;2023-02-18T04:33:19;99180.52;;;9.94;88.13
71996;BME280;59862;47.732;7.346;2023-02-18T04:35:47;99180.39;;;9.96;88.49
71996;BME280;59862;47.732;7.346;2023-02-18T04:38:14;99184.74;;;9.97;88.21
71996;BME280;59862;47.732;7.346;2023-02-18T04:40:42;99184.74;;;9.97;88.21
71996;BME280;59862;47.732;7.346;2023-02-18T04:43:09;99188.11;;;9.99;88.17
71996;BME280;59862;47.732;7.346;2023-02-18T04:45:36;99187.34;;;10.03;87.97
71996;BME280;59862;47.732;7.346;2023-02-18T04:48:05;99185.84;;;10.04;87.79
71996;BME280;59862;47.732;7.346;2023-02-18T04:50:34;99183.89;;;10.10;87.60
71996;BME280;59862;47.732;7.346;2023-02-18T04:53:01;99179.08;;;10.14;87.19
71996;BME280;59862;47.732;7.346;2023-02-18T04:55:29;99186.34;;;10.17;86.73
71996;BME280;59862;47.732;7.346;2023-02-18T04:57:56;99178.95;;;10.15;86.44
71996;BME280;59862;47.732;7.346;2023-02-18T05:00:24;99173.27;;;10.18;86.25
71996;BME280;59862;47.732;7.346;2023-02-18T05:02:53;99171.59;;;10.17;86.17
71996;BME280;59862;47.732;7.346;2023-02-18T05:05:20;99171.89;;;10.14;86.39
71996;BME280;59862;47.732;7.346;2023-02-18T05:07:48;99175.12;;;10.18;86.32
71996;BME280;59862;47.732;7.346;2023-02-18T05:10:16;99175.12;;;10.18;86.32
71996;BME280;59862;47.732;7.346;2023-02-18T05:12:44;99167.17;;;10.12;86.39
71996;BME280;59862;47.732;7.346;2023-02-18T05:15:12;99163.52;;;10.13;86.43
71996;BME280;59862;47.732;7.346;2023-02-18T05:17:39;99165.88;;;10.16;86.24
71996;BME280;59862;47.732;7.346;2023-02-18T05:20:07;99154.16;;;10.17;86.08
71996;BME280;59862;47.732;7.346;2023-02-18T05:22:35;99156.16;;;10.15;85.99
71996;BME280;59862;47.732;7.346;2023-02-18T05:25:03;99158.19;;;10.17;85.92
71996;BME280;59862;47.732;7.346;2023-02-18T05:27:30;99158.52;;;10.18;85.89
71996;BME280;59862;47.732;7.346;2023-02-18T05:29:58;99167.08;;;10.18;85.79
71996;BME280;59862;47.732;7.346;2023-02-18T05:32:26;99163.45;;;10.27;85.76
71996;BME280;59862;47.732;7.346;2023-02-18T05:34:53;99157.64;;;10.31;85.17
71996;BME280;59862;47.732;7.346;2023-02-18T05:37:20;99164.02;;;10.30;84.97
71996;BME280;59862;47.732;7.346;2023-02-18T05:39:48;99160.84;;;10.31;84.95
71996;BME280;59862;47.732;7.346;2023-02-18T05:42:15;99160.84;;;10.31;84.95
71996;BME280;59862;47.732;7.346;2023-02-18T05:44:43;99163.69;;;10.33;84.76
71996;BME280;59862;47.732;7.346;2023-02-18T05:47:11;99157.64;;;10.31;84.61
71996;BME280;59862;47.732;7.346;2023-02-18T05:49:41;99169.16;;;10.41;84.56
71996;BME280;59862;47.732;7.346;2023-02-18T05:52:10;99169.16;;;10.41;84.56
71996;BME280;59862;47.732;7.346;2023-02-18T05:54:38;99169.81;;;10.39;84.39
71996;BME280;59862;47.732;7.346;2023-02-18T05:57:05;99167.22;;;10.51;84.37
71996;BME280;59862;47.732;7.346;2023-02-18T05:59:33;99174.91;;;10.50;84.01
71996;BME280;59862;47.732;7.346;2023-02-18T06:02:01;99171.87;;;10.45;84.08
71996;BME280;59862;47.732;7.346;2023-02-18T06:04:28;99164.28;;;10.41;84.29
71996;BME280;59862;47.732;7.346;2023-02-18T06:06:56;99165.81;;;10.43;84.33
71996;BME280;59862;47.732;7.346;2023-02-18T06:09:23;99163.88;;;10.36;84.48
71996;BME280;59862;47.732;7.346;2023-02-18T06:11:51;99165.55;;;10.33;84.68
71996;BME280;59862;47.732;7.346;2023-02-18T06:14:19;99161.36;;;10.34;84.66
71996;BME280;59862;47.732;7.346;2023-02-18T06:16:47;99163.98;;;10.26;84.72
71996;BME280;59862;47.732;7.346;2023-02-18T06:19:14;99162.90;;;10.19;84.85
71996;BME280;59862;47.732;7.346;2023-02-18T06:21:42;99162.73;;;10.21;84.97
71996;BME280;59862;47.732;7.346;2023-02-18T06:24:09;99164.80;;;10.27;84.67
71996;BME280;59862;47.732;7.346;2023-02-18T06:26:37;99168.33;;;10.27;84.55
71996;BME280;59862;47.732;7.346;2023-02-18T06:29:04;99167.38;;;10.32;84.42
71996;BME280;59862;47.732;7.346;2023-02-18T06:31:32;99168.08;;;10.34;84.14
71996;BME280;59862;47.732;7.346;2023-02-18T06:33:59;99166.38;;;10.33;83.95
71996;BME280;59862;47.732;7.346;2023-02-18T06:36:27;99163.52;;;10.31;83.92
71996;BME280;59862;47.732;7.346;2023-02-18T06:38:54;99167.88;;;10.32;83.76
71996;BME280;59862;47.732;7.346;2023-02-18T06:41:23;99173.11;;;10.37;83.60
71996;BME280;59862;47.732;7.346;2023-02-18T06:43:51;99168.03;;;10.30;83.57
71996;BME280;59862;47.732;7.346;2023-02-18T06:46:18;99168.73;;;10.32;83.66
71996;BME280;59862;47.732;7.346;2023-02-18T06:48:46;99170.16;;;10.44;83.37
71996;BME280;59862;47.732;7.346;2023-02-18T06:51:14;99168.47;;;10.39;83.23
71996;BME280;59862;47.732;7.346;2023-02-18T06:53:42;99167.81;;;10.41;83.21
71996;BME280;59862;47.732;7.346;2023-02-18T06:56:10;99171.15;;;10.39;83.19
71996;BME280;59862;47.732;7.346;2023-02-18T06:58:38;99169.97;;;10.42;83.04
71996;BME280;59862;47.732;7.346;2023-02-18T07:01:05;99165.16;;;10.45;82.91
71996;BME280;59862;47.732;7.346;2023-02-18T07:03:33;99167.97;;;10.44;82.71
71996;BME280;59862;47.732;7.346;2023-02-18T07:06:01;99158.81;;;10.50;82.63
71996;BME280;59862;47.732;7.346;2023-02-18T07:08:28;99172.00;;;10.44;82.43
71996;BME280;59862;47.732;7.346;2023-02-18T07:10:57;99167.88;;;10.49;82.38
71996;BME280;59862;47.732;7.346;2023-02-18T07:13:25;99169.91;;;10.51;82.17
71996;BME280;59862;47.732;7.346;2023-02-18T07:15:52;99156.68;;;10.54;81.94
71996;BME280;59862;47.732;7.346;2023-02-18T07:18:20;99158.93;;;10.62;81.67
71996;BME280;59862;47.732;7.346;2023-02-18T07:20:47;99155.20;;;10.59;81.27
71996;BME280;59862;47.732;7.346;2023-02-18T07:23:15;99167.02;;;10.66;80.93
71996;BME280;59862;47.732;7.346;2023-02-18T07:25:42;99167.05;;;10.71;80.91
71996;BME280;59862;47.732;7.346;2023-02-18T07:28:10;99162.36;;;10.73;80.72
71996;BME280;59862;47.732;7.346;2023-02-18T07:30:37;99165.40;;;10.74;80.59
71996;BME280;59862;47.732;7.346;2023-02-18T07:33:05;99163.86;;;10.71;80.58
71996;BME280;59862;47.732;7.346;2023-02-18T07:35:33;99162.72;;;10.74;80.42
71996;BME280;59862;47.732;7.346;2023-02-18T07:38:00;99161.86;;;10.73;80.38
71996;BME280;59862;47.732;7.346;2023-02-18T07:40:28;99170.77;;;10.74;80.29
71996;BME280;59862;47.732;7.346;2023-02-18T07:42:56;99180.52;;;10.79;80.12
71996;BME280;59862;47.732;7.346;2023-02-18T07:45:24;99180.52;;;10.79;80.12
71996;BME280;59862;47.732;7.346;2023-02-18T07:47:51;99183.53;;;10.76;80.23
71996;BME280;59862;47.732;7.346;2023-02-18T07:50:19;99180.36;;;10.76;80.27
71996;BME280;59862;47.732;7.346;2023-02-18T07:52:46;99186.22;;;10.76;80.26
71996;BME280;59862;47.732;7.346;2023-02-18T07:55:14;99188.91;;;10.76;80.52
71996;BME280;59862;47.732;7.346;2023-02-18T07:57:41;99190.22;;;10.72;80.61
71996;BME280;59862;47.732;7.346;2023-02-18T08:00:11;99185.17;;;10.73;80.63
71996;BME280;59862;47.732;7.346;2023-02-18T08:02:39;99187.01;;;10.72;80.84
71996;BME280;59862;47.732;7.346;2023-02-18T08:05:06;99190.02;;;10.69;81.02
71996;BME280;59862;47.732;7.346;2023-02-18T08:07:34;99179.75;;;10.64;81.49
71996;BME280;59862;47.732;7.346;2023-02-18T08:10:02;99179.75;;;10.64;81.49
71996;BME280;59862;47.732;7.346;2023-02-18T08:12:29;99189.00;;;10.70;81.31
71996;BME280;59862;47.732;7.346;2023-02-18T08:14:57;99184.95;;;10.66;81.56
71996;BME280;59862;47.732;7.346;2023-02-18T08:17:24;99180.44;;;10.66;81.46
71996;BME280;59862;47.732;7.346;2023-02-18T08:19:52;99180.44;;;10.66;81.46
71996;BME280;59862;47.732;7.346;2023-02-18T08:22:19;99182.16;;;10.72;81.63
71996;BME280;59862;47.732;7.346;2023-02-18T08:24:46;99186.71;;;10.75;81.57
71996;BME280;59862;47.732;7.346;2023-02-18T08:27:14;99189.20;;;10.73;81.58
71996;BME280;59862;47.732;7.346;2023-02-18T08:29:41;99183.86;;;10.77;81.54
71996;BME280;59862;47.732;7.346;2023-02-18T08:32:09;99183.61;;;10.88;81.37
71996;BME280;59862;47.732;7.346;2023-02-18T08:34:36;99177.56;;;10.86;81.03
71996;BME280;59862;47.732;7.346;2023-02-18T08:37:03;99178.93;;;10.90;81.05
71996;BME280;59862;47.732;7.346;2023-02-18T08:39:36;99178.25;;;10.88;80.86
71996;BME280;59862;47.732;7.346;2023-02-18T08:42:04;99178.25;;;10.88;80.86
71996;BME280;59862;47.732;7.346;2023-02-18T08:44:32;99174.82;;;10.78;81.35
71996;BME280;59862;47.732;7.346;2023-02-18T08:46:59;99176.49;;;10.79;81.47
71996;BME280;59862;47.732;7.346;2023-02-18T08:49:27;99175.15;;;10.79;81.60
71996;BME280;59862;47.732;7.346;2023-02-18T08:51:54;99167.29;;;10.81;81.35
71996;BME280;59862;47.732;7.346;2023-02-18T08:54:22;99173.51;;;10.82;81.39
71996;BME280;59862;47.732;7.346;2023-02-18T08:56:53;99163.70;;;10.73;81.56
71996;BME280;59862;47.732;7.346;2023-02-18T08:59:21;99167.09;;;10.79;81.61
71996;BME280;59862;47.732;7.346;2023-02-18T09:01:48;99170.44;;;10.77;81.66
71996;BME280;59862;47.732;7.346;2023-02-18T09:04:16;99175.34;;;10.81;81.67
71996;BME280;59862;47.732;7.346;2023-02-18T09:06:44;99172.00;;;10.83;81.56
71996;BME280;59862;47.732;7.346;2023-02-18T09:09:12;99168.57;;;10.95;81.30
71996;BME280;59862;47.732;7.346;2023-02-18T09:11:39;99168.57;;;10.95;81.30
71996;BME280;59862;47.732;7.346;2023-02-18T09:14:07;99173.06;;;10.90;81.20
71996;BME280;59862;47.732;7.346;2023-02-18T09:16:35;99169.89;;;10.91;81.24
71996;BME280;59862;47.732;7.346;2023-02-18T09:19:03;99176.63;;;10.95;81.23
71996;BME280;59862;47.732;7.346;2023-02-18T09:21:31;99171.77;;;10.98;81.03
71996;BME280;59862;47.732;7.346;2023-02-18T09:23:59;99173.98;;;11.03;80.81
71996;BME280;59862;47.732;7.346;2023-02-18T09:26:27;99175.99;;;11.01;80.84
71996;BME280;59862;47.732;7.346;2023-02-18T09:28:56;99182.02;;;10.99;80.91
71996;BME280;59862;47.732;7.346;2023-02-18T09:31:25;99173.88;;;11.08;80.67
71996;BME280;59862;47.732;7.346;2023-02-18T09:34:00;99180.13;;;11.13;80.59
71996;BME280;59862;47.732;7.346;2023-02-18T09:36:23;99176.77;;;11.15;80.29
71996;BME280;59862;47.732;7.346;2023-02-18T09:38:52;99176.80;;;11.19;80.11
71996;BME280;59862;47.732;7.346;2023-02-18T09:46:47;99188.30;;;11.37;79.53
71996;BME280;59862;47.732;7.346;2023-02-18T09:49:25;99196.82;;;11.28;79.47
71996;BME280;59862;47.732;7.346;2023-02-18T09:52:00;99191.09;;;11.23;79.73
71996;BME280;59862;47.732;7.346;2023-02-18T09:54:26;99185.25;;;11.28;79.89
71996;BME280;59862;47.732;7.346;2023-02-18T09:56:54;99198.97;;;11.21;80.04
71996;BME280;59862;47.732;7.346;2023-02-18T09:59:23;99188.55;;;11.22;80.11
71996;BME280;59862;47.732;7.346;2023-02-18T10:01:52;99194.64;;;11.24;80.16
71996;BME280;59862;47.732;7.346;2023-02-18T10:04:28;99189.56;;;11.21;80.07
71996;BME280;59862;47.732;7.346;2023-02-18T10:06:58;99187.41;;;11.28;80.07
71996;BME280;59862;47.732;7.346;2023-02-18T10:09:36;99194.86;;;11.34;79.81
71996;BME280;59862;47.732;7.346;2023-02-18T10:12:19;99174.64;;;11.26;79.67
71996;BME280;59862;47.732;7.346;2023-02-18T10:14:53;99192.48;;;11.31;79.71
71996;BME280;59862;47.732;7.346;2023-02-18T10:17:17;99183.57;;;11.31;79.87
71996;BME280;59862;47.732;7.346;2023-02-18T10:19:47;99183.09;;;11.35;79.46
71996;BME280;59862;47.732;7.346;2023-02-18T10:22:16;99185.02;;;11.47;79.45
71996;BME280;59862;47.732;7.346;2023-02-18T10:27:32;99185.25;;;11.62;78.52
71996;BME280;59862;47.732;7.346;2023-02-18T10:29:51;99185.36;;;11.52;78.86
71996;BME280;59862;47.732;7.346;2023-02-18T10:32:30;99182.36;;;11.55;78.56
71996;BME280;59862;47.732;7.346;2023-02-18T10:35:13;99178.84;;;11.59;78.62
71996;BME280;59862;47.732;7.346;2023-02-18T10:49:01;99176.66;;;11.88;77.28
71996;BME280;59862;47.732;7.346;2023-02-18T10:51:33;99163.03;;;11.89;76.90
71996;BME280;59862;47.732;7.346;2023-02-18T10:54:01;99172.98;;;11.93;76.83
71996;BME280;59862;47.732;7.346;2023-02-18T10:56:40;99172.44;;;11.85;77.34
71996;BME280;59862;47.732;7.346;2023-02-18T10:59:14;99163.03;;;11.89;77.38
71996;BME280;59862;47.732;7.346;2023-02-18T11:01:42;99155.70;;;12.03;76.71
71996;BME280;59862;47.732;7.346;2023-02-18T11:04:14;99160.59;;;12.08;76.33
71996;BME280;59862;47.732;7.346;2023-02-18T11:06:44;99157.72;;;12.13;76.08
71996;BME280;59862;47.732;7.346;2023-02-18T11:15:03;99156.42;;;12.38;74.86
71996;BME280;59862;47.732;7.346;2023-02-18T11:17:27;99145.13;;;12.30;74.44
71996;BME280;59862;47.732;7.346;2023-02-18T11:19:57;99138.75;;;12.43;74.11
71996;BME280;59862;47.732;7.346;2023-02-18T11:22:29;99134.22;;;12.40;74.24
71996;BME280;59862;47.732;7.346;2023-02-18T11:25:01;99135.73;;;12.54;73.67
71996;BME280;59862;47.732;7.346;2023-02-18T11:27:45;99127.17;;;12.43;73.70
71996;BME280;59862;47.732;7.346;2023-02-18T11:30:25;99126.81;;;12.50;73.38
71996;BME280;59862;47.732;7.346;2023-02-18T11:32:55;99123.45;;;12.52;73.32
71996;BME280;59862;47.732;7.346;2023-02-18T11:35:26;99126.48;;;12.77;72.51
71996;BME280;59862;47.732;7.346;2023-02-18T11:37:55;99124.46;;;12.79;71.69
71996;BME280;59862;47.732;7.346;2023-02-18T11:40:35;99123.08;;;12.95;71.53
71996;BME280;59862;47.732;7.346;2023-02-18T11:43:16;99131.50;;;13.00;70.83
71996;BME280;59862;47.732;7.346;2023-02-18T11:45:46;99131.17;;;12.87;71.02
71996;BME280;59862;47.732;7.346;2023-02-18T11:48:16;99127.82;;;12.81;71.31
71996;BME280;59862;47.732;7.346;2023-02-18T11:50:45;99131.69;;;12.78;71.04
71996;BME280;59862;47.732;7.346;2023-02-18T11:53:26;99135.73;;;12.74;71.21
71996;BME280;59862;47.732;7.346;2023-02-18T11:55:57;99128.16;;;12.74;71.27
71996;BME280;59862;47.732;7.346;2023-02-18T11:58:25;99133.22;;;12.77;71.12
71996;BME280;59862;47.732;7.346;2023-02-18T12:00:58;99131.00;;;12.84;70.69
71996;BME280;59862;47.732;7.346;2023-02-18T12:03:45;99128.82;;;12.92;70.67
71996;BME280;59862;47.732;7.346;2023-02-18T12:06:14;99127.80;;;12.93;70.03
71996;BME280;59862;47.732;7.346;2023-02-18T12:08:48;99112.52;;;12.81;69.88
71996;BME280;59862;47.732;7.346;2023-02-18T12:11:39;99104.59;;;12.88;69.32
71996;BME280;59862;47.732;7.346;2023-02-18T12:13:54;99109.97;;;12.76;69.58
71996;BME280;59862;47.732;7.346;2023-02-18T12:21:58;99106.60;;;12.90;69.72
71996;BME280;59862;47.732;7.346;2023-02-18T12:24:43;99097.48;;;13.03;69.37
71996;BME280;59862;47.732;7.346;2023-02-18T12:27:30;99096.15;;;12.99;68.76
71996;BME280;59862;47.732;7.346;2023-02-18T12:30:17;99104.92;;;12.81;68.65
71996;BME280;59862;47.732;7.346;2023-02-18T12:32:47;99089.78;;;12.84;68.26
71996;BME280;59862;47.732;7.346;2023-02-18T12:40:51;99076.98;;;12.78;67.43
71996;BME280;59862;47.732;7.346;2023-02-18T12:48:37;99078.00;;;12.65;67.04
71996;BME280;59862;47.732;7.346;2023-02-18T12:56:51;99086.08;;;12.77;66.09
71996;BME280;59862;47.732;7.346;2023-02-18T13:01:58;99064.17;;;12.80;65.95
71996;BME280;59862;47.732;7.346;2023-02-18T13:04:32;99066.54;;;12.83;66.22
71996;BME280;59862;47.732;7.346;2023-02-18T13:10:31;99049.36;;;12.88;65.29
71996;BME280;59862;47.732;7.346;2023-02-18T13:12:47;99053.93;;;12.79;65.68
71996;BME280;59862;47.732;7.346;2023-02-18T13:15:17;99043.33;;;12.82;66.13
71996;BME280;59862;47.732;7.346;2023-02-18T13:17:44;99039.57;;;12.91;65.57
71996;BME280;59862;47.732;7.346;2023-02-18T13:20:20;99025.09;;;12.96;65.50
71996;BME280;59862;47.732;7.346;2023-02-18T13:22:48;99048.67;;;12.94;65.40
71996;BME280;59862;47.732;7.346;2023-02-18T13:25:19;99044.61;;;13.06;65.53
71996;BME280;59862;47.732;7.346;2023-02-18T13:30:26;99031.88;;;13.65;63.13
71996;BME280;59862;47.732;7.346;2023-02-18T13:35:59;99029.88;;;13.63;63.14
71996;BME280;59862;47.732;7.346;2023-02-18T13:41:20;99021.01;;;13.04;63.82
71996;BME280;59862;47.732;7.346;2023-02-18T13:43:48;99005.82;;;13.19;63.59
71996;BME280;59862;47.732;7.346;2023-02-18T13:46:25;99007.08;;;13.39;63.22
71996;BME280;59862;47.732;7.346;2023-02-18T13:51:46;99004.84;;;13.51;62.83
71996;BME280;59862;47.732;7.346;2023-02-18T13:54:17;98992.89;;;13.45;62.16
71996;BME280;59862;47.732;7.346;2023-02-18T13:56:49;98996.45;;;13.42;61.59
71996;BME280;59862;47.732;7.346;2023-02-18T13:59:27;98988.95;;;13.29;61.63
71996;BME280;59862;47.732;7.346;2023-02-18T14:01:52;98987.23;;;13.32;62.04
71996;BME280;59862;47.732;7.346;2023-02-18T14:09:45;98976.45;;;14.04;59.84
71996;BME280;59862;47.732;7.346;2023-02-18T14:14:59;98976.33;;;14.20;59.30
71996;BME280;59862;47.732;7.346;2023-02-18T14:17:31;98981.58;;;14.18;58.58
71996;BME280;59862;47.732;7.346;2023-02-18T14:27:40;98976.38;;;15.23;56.49
71996;BME280;59862;47.732;7.346;2023-02-18T14:30:18;98978.47;;;16.13;53.66
71996;BME280;59862;47.732;7.346;2023-02-18T14:32:45;98963.70;;;15.84;53.23
71996;BME280;59862;47.732;7.346;2023-02-18T14:35:24;98962.58;;;15.57;54.52
71996;BME280;59862;47.732;7.346;2023-02-18T14:38:00;98958.92;;;15.86;53.67
71996;BME280;59862;47.732;7.346;2023-02-18T14:40:33;98972.15;;;16.83;50.80
71996;BME280;59862;47.732;7.346;2023-02-18T14:43:06;98967.45;;;16.87;50.56
71996;BME280;59862;47.732;7.346;2023-02-18T14:48:41;98958.80;;;15.23;54.64
71996;BME280;59862;47.732;7.346;2023-02-18T14:51:08;98961.14;;;14.71;56.29
71996;BME280;59862;47.732;7.346;2023-02-18T14:53:42;98963.74;;;15.08;55.19
71996;BME280;59862;47.732;7.346;2023-02-18T14:56:13;98970.22;;;15.18;54.75
71996;BME280;59862;47.732;7.346;2023-02-18T14:58:44;98958.36;;;15.19;54.18
71996;BME280;59862;47.732;7.346;2023-02-18T15:01:24;98949.05;;;15.57;53.36
71996;BME280;59862;47.732;7.346;2023-02-18T15:03:53;98950.03;;;15.60;53.38
71996;BME280;59862;47.732;7.346;2023-02-18T15:08:59;98947.38;;;15.46;54.28
71996;BME280;59862;47.732;7.346;2023-02-18T15:11:36;98944.84;;;15.44;54.76
71996;BME280;59862;47.732;7.346;2023-02-18T15:14:23;98944.89;;;15.55;54.70
71996;BME280;59862;47.732;7.346;2023-02-18T15:16:48;98940.01;;;15.40;54.87
71996;BME280;59862;47.732;7.346;2023-02-18T15:19:18;98948.98;;;15.00;54.84